createdAt,value
2022-10-23T00:03:00.319Z,37.00
2022-10-23T00:06:05.211Z,34.75
2022-10-23T00:09:11.010Z,36.25
2022-10-23T00:12:14.415Z,36.25
2022-10-23T00:15:20.679Z,33.75
2022-10-23T00:18:25.614Z,35.75
2022-10-23T00:21:29.433Z,17.50
2022-10-23T00:24:32.727Z,34.25
2022-10-23T00:27:36.679Z,32.25
2022-10-23T00:30:40.038Z,34.00
2022-10-23T00:33:45.839Z,36.25
2022-10-23T00:36:49.390Z,35.50
2022-10-23T00:39:53.440Z,34.00
2022-10-23T00:42:56.923Z,31.25
2022-10-23T00:46:00.815Z,34.50
2022-10-23T00:49:07.411Z,31.50
2022-10-23T00:52:14.468Z,23.50
2022-10-23T00:55:20.768Z,28.50
2022-10-23T00:58:24.743Z,26.00
2022-10-23T01:01:28.417Z,24.75
2022-10-23T01:04:34.429Z,22.75
2022-10-23T01:07:51.516Z,23.00
2022-10-23T01:11:05.090Z,24.00
2022-10-23T01:14:24.538Z,24.75
2022-10-23T01:17:39.630Z,25.75
2022-10-23T01:20:54.443Z,24.25
2022-10-23T01:24:26.813Z,26.00
2022-10-23T01:27:37.104Z,25.00
2022-10-23T01:30:45.464Z,23.50
2022-10-23T01:33:57.564Z,29.50
2022-10-23T01:37:08.121Z,31.50
2022-10-23T01:40:21.430Z,32.00
2022-10-23T01:43:31.592Z,27.00
2022-10-23T01:46:37.590Z,27.50
2022-10-23T01:49:45.763Z,25.00
2022-10-23T01:52:49.186Z,24.50
2022-10-23T01:55:56.657Z,25.00
2022-10-23T01:59:06.739Z,21.25
2022-10-23T02:02:16.529Z,23.75
2022-10-23T02:05:25.387Z,32.25
2022-10-23T02:08:29.249Z,29.00
2022-10-23T02:11:38.880Z,28.50
2022-10-23T02:14:51.724Z,36.00
2022-10-23T02:18:04.439Z,36.25
2022-10-23T02:21:12.598Z,37.75
2022-10-23T02:24:21.440Z,31.25
2022-10-23T02:27:30.613Z,38.00
2022-10-23T02:30:39.420Z,38.00
2022-10-23T02:33:48.859Z,17.50
2022-10-23T02:36:52.422Z,27.50
2022-10-23T02:39:58.944Z,29.50
2022-10-23T02:43:15.031Z,24.50
2022-10-23T02:46:29.809Z,28.00
2022-10-23T02:49:41.228Z,38.00
2022-10-23T02:52:57.346Z,33.25
2022-10-23T02:56:08.599Z,26.25
2022-10-23T02:59:21.452Z,29.00
2022-10-23T03:05:40.732Z,36.50
2022-10-23T03:08:45.556Z,33.00
2022-10-23T03:11:49.225Z,40.00
2022-10-23T03:14:52.960Z,29.00
2022-10-23T03:17:58.020Z,28.75
2022-10-23T03:21:01.427Z,26.75
2022-10-23T03:24:05.640Z,22.25
2022-10-23T03:27:14.863Z,26.50
2022-10-23T03:30:18.962Z,28.50
2022-10-23T03:33:28.014Z,25.25
2022-10-23T03:36:31.647Z,30.50
2022-10-23T03:39:35.287Z,20.50
2022-10-23T03:42:39.192Z,28.25
2022-10-23T03:45:42.637Z,16.75
2022-10-23T03:48:47.927Z,32.75
2022-10-23T03:51:52.739Z,28.75
2022-10-23T03:54:57.841Z,35.25
2022-10-23T03:58:01.365Z,29.25
2022-10-23T04:01:04.982Z,33.25
2022-10-23T04:04:09.951Z,32.50
2022-10-23T04:07:13.842Z,41.75
2022-10-23T04:10:17.318Z,42.75
2022-10-23T04:13:21.190Z,40.50
2022-10-23T04:16:25.231Z,31.25
2022-10-23T04:19:30.205Z,33.50
2022-10-23T04:22:37.050Z,28.25
2022-10-23T04:25:41.493Z,32.75
2022-10-23T04:28:45.259Z,34.25
2022-10-23T04:31:49.063Z,33.75
2022-10-23T04:34:55.074Z,36.50
2022-10-23T04:37:59.939Z,29.75
2022-10-23T04:41:03.498Z,30.00
2022-10-23T04:44:07.202Z,34.00
2022-10-23T04:47:16.952Z,31.25
2022-10-23T04:50:32.970Z,24.50
2022-10-23T04:53:52.114Z,24.75
2022-10-23T04:57:19.665Z,28.00
2022-10-23T05:00:37.663Z,29.25
2022-10-23T05:03:41.344Z,26.75
2022-10-23T05:06:46.396Z,29.00
2022-10-23T05:10:12.789Z,30.25
2022-10-23T05:13:24.429Z,28.50
2022-10-23T05:16:36.496Z,41.00
2022-10-23T05:19:44.906Z,30.75
2022-10-23T05:22:54.147Z,49.75
2022-10-23T05:26:03.193Z,45.75
2022-10-23T05:29:09.259Z,49.50
2022-10-23T05:32:15.939Z,33.50
2022-10-23T05:35:23.530Z,35.00
2022-10-23T05:38:33.751Z,30.50
2022-10-23T05:41:42.574Z,29.25
2022-10-23T05:44:46.324Z,17.50
2022-10-23T05:48:30.067Z,24.00
2022-10-23T05:51:56.360Z,30.00
2022-10-23T05:55:19.574Z,37.50
2022-10-23T05:58:35.154Z,25.00
2022-10-23T06:01:50.378Z,24.25
2022-10-23T06:05:08.834Z,34.00
2022-10-23T06:08:12.648Z,37.25
2022-10-23T06:11:18.839Z,35.00
2022-10-23T06:14:32.787Z,27.00
2022-10-23T06:17:36.561Z,17.50
2022-10-23T06:20:42.411Z,31.50
2022-10-23T06:23:52.020Z,30.75
2022-10-23T06:27:32.737Z,33.50
2022-10-23T06:30:55.031Z,28.25
2022-10-23T06:34:00.762Z,23.50
2022-10-23T06:37:07.216Z,25.25
2022-10-23T06:40:31.652Z,28.00
2022-10-23T06:43:39.777Z,25.25
2022-10-23T06:47:00.290Z,23.50
2022-10-23T06:50:27.371Z,26.00
2022-10-23T06:53:31.087Z,27.75
2022-10-23T06:56:43.200Z,23.33
2022-10-23T06:59:50.007Z,20.25
2022-10-23T07:02:54.591Z,19.50
2022-10-23T07:06:01.631Z,30.50
2022-10-23T07:09:05.674Z,20.00
2022-10-23T07:12:29.485Z,19.75
2022-10-23T07:16:13.878Z,17.67
2022-10-23T07:19:18.163Z,13.00
2022-10-23T07:22:35.420Z,14.00
2022-10-23T07:25:45.349Z,14.33
2022-10-23T07:28:57.088Z,14.67
2022-10-23T07:32:04.604Z,13.33
2022-10-23T07:35:17.262Z,14.00
2022-10-23T07:38:35.924Z,14.33
2022-10-23T07:41:39.546Z,17.50
2022-10-23T07:44:43.839Z,16.00
2022-10-23T07:47:53.358Z,14.00
2022-10-23T07:51:03.218Z,12.00
2022-10-23T07:54:11.743Z,17.25
2022-10-23T07:57:34.123Z,17.33
2022-10-23T08:01:05.938Z,16.00
2022-10-23T08:04:14.806Z,14.00
2022-10-23T08:07:29.511Z,13.00
2022-10-23T08:10:35.202Z,14.33
2022-10-23T08:13:39.285Z,14.33
2022-10-23T08:16:44.168Z,16.33
2022-10-23T08:19:54.687Z,15.00
2022-10-23T08:22:58.804Z,17.67
2022-10-23T08:26:05.576Z,16.33
2022-10-23T08:29:09.513Z,19.00
2022-10-23T08:32:13.288Z,20.50
2022-10-23T08:35:32.441Z,24.00
2022-10-23T08:38:36.253Z,17.75
2022-10-23T08:41:48.596Z,22.00
2022-10-23T08:45:02.851Z,18.33
2022-10-23T08:48:19.771Z,24.00
2022-10-23T08:51:53.501Z,21.75
2022-10-23T08:55:16.100Z,18.75
2022-10-23T08:58:29.421Z,19.50
2022-10-23T09:01:43.671Z,17.33
2022-10-23T09:04:49.842Z,15.00
2022-10-23T09:08:08.890Z,15.00
2022-10-23T09:11:23.771Z,17.33
2022-10-23T09:14:42.346Z,16.67
2022-10-23T09:17:47.848Z,14.33
2022-10-23T09:20:54.132Z,21.67
2022-10-23T09:23:58.963Z,13.33
2022-10-23T09:30:07.829Z,13.67
2022-10-23T09:33:18.051Z,16.00
2022-10-23T09:36:24.269Z,15.67
2022-10-23T09:39:32.062Z,11.67
2022-10-23T09:42:35.912Z,12.00
2022-10-23T09:45:42.629Z,7.33
2022-10-23T09:49:00.883Z,7.00
2022-10-23T09:52:25.271Z,8.00
2022-10-23T09:55:30.776Z,6.67
2022-10-23T09:58:38.195Z,11.00
2022-10-23T10:01:49.337Z,11.33
2022-10-23T10:05:25.050Z,9.00
2022-10-23T10:08:40.501Z,8.67
2022-10-23T10:11:51.099Z,7.67
2022-10-23T10:15:04.528Z,12.33
2022-10-23T10:18:17.105Z,11.33
2022-10-23T10:21:26.307Z,11.00
2022-10-23T10:24:35.905Z,10.00
2022-10-23T10:27:53.812Z,12.67
2022-10-23T10:31:10.004Z,11.00
2022-10-23T10:34:19.243Z,7.33
2022-10-23T10:37:36.195Z,38.50
2022-10-23T10:40:44.306Z,12.00
2022-10-23T10:44:03.222Z,12.67
2022-10-23T10:47:18.501Z,16.00
2022-10-23T10:50:31.261Z,11.00
2022-10-23T10:54:07.645Z,12.67
2022-10-23T10:57:22.029Z,15.00
2022-10-23T11:00:29.790Z,14.00
2022-10-23T11:03:41.232Z,13.67
2022-10-23T11:06:50.214Z,16.00
2022-10-23T11:09:55.977Z,15.33
2022-10-23T11:13:01.107Z,14.67
2022-10-23T11:16:12.926Z,12.00
2022-10-23T11:19:22.586Z,17.67
2022-10-23T11:22:35.084Z,15.00
2022-10-23T11:25:56.008Z,15.00
2022-10-23T11:29:19.045Z,15.33
2022-10-23T11:32:39.950Z,14.67
2022-10-23T11:36:07.820Z,17.67
2022-10-23T11:39:23.036Z,20.00
2022-10-23T11:42:33.943Z,14.00
2022-10-23T11:45:39.398Z,11.33
2022-10-23T11:48:48.264Z,15.00
2022-10-23T11:52:08.218Z,13.00
2022-10-23T11:55:57.489Z,14.00
2022-10-23T11:59:22.263Z,13.67
2022-10-23T12:02:33.726Z,12.00
2022-10-23T12:05:40.583Z,13.00
2022-10-23T12:08:55.457Z,12.00
2022-10-23T12:12:17.643Z,16.67
2022-10-23T12:15:24.914Z,12.00
2022-10-23T12:18:31.029Z,11.33
2022-10-23T12:21:41.477Z,15.00
2022-10-23T12:25:02.911Z,14.33
2022-10-23T12:28:14.258Z,11.00
2022-10-23T12:31:35.233Z,12.33
2022-10-23T12:40:30.807Z,14.00
2022-10-23T12:43:40.849Z,12.00
2022-10-23T12:46:51.003Z,12.00
2022-10-23T12:49:54.903Z,12.00
2022-10-23T12:53:02.500Z,12.00
2022-10-23T12:56:09.481Z,12.33
2022-10-23T12:59:20.310Z,11.00
2022-10-23T13:02:26.784Z,12.67
2022-10-23T13:05:31.754Z,14.67
2022-10-23T13:08:40.796Z,10.67
2022-10-23T13:12:22.599Z,10.33
2022-10-23T13:15:39.536Z,13.00
2022-10-23T13:18:43.767Z,11.00
2022-10-23T13:21:47.811Z,13.33
2022-10-23T13:24:52.224Z,10.00
2022-10-23T13:28:21.443Z,12.33
2022-10-23T13:31:40.985Z,13.00
2022-10-23T13:35:03.715Z,9.67
2022-10-23T13:38:16.297Z,13.67
2022-10-23T13:41:21.663Z,13.33
2022-10-23T13:44:26.516Z,14.00
2022-10-23T13:47:31.897Z,13.00
2022-10-23T13:50:37.670Z,12.00
2022-10-23T13:53:41.469Z,13.67
2022-10-23T13:56:47.367Z,13.67
2022-10-23T13:59:54.185Z,13.33
2022-10-23T14:03:01.028Z,14.00
2022-10-23T14:06:07.910Z,12.33
2022-10-23T14:09:15.035Z,15.00
2022-10-23T14:12:19.498Z,15.33
2022-10-23T14:15:24.113Z,27.67
2022-10-23T14:18:30.479Z,16.00
2022-10-23T14:21:34.921Z,14.00
2022-10-23T14:24:39.739Z,10.33
2022-10-23T14:27:43.826Z,15.33
2022-10-23T14:30:47.387Z,17.00
2022-10-23T14:33:56.995Z,11.67
2022-10-23T14:37:08.791Z,15.67
2022-10-23T14:40:13.790Z,14.33
2022-10-23T14:43:17.395Z,23.00
2022-10-23T14:46:23.611Z,20.00
2022-10-23T14:49:28.702Z,19.67
2022-10-23T14:52:32.716Z,21.00
2022-10-23T14:55:36.527Z,28.00
2022-10-23T14:58:42.680Z,39.25
2022-10-23T15:01:48.616Z,23.00
2022-10-23T15:04:54.683Z,7.00
2022-10-23T15:07:59.196Z,22.67
2022-10-23T15:11:05.708Z,21.00
2022-10-23T15:14:11.800Z,19.00
2022-10-23T15:17:16.258Z,17.00
2022-10-23T15:20:23.694Z,16.33
2022-10-23T15:23:27.638Z,22.67
2022-10-23T15:26:32.427Z,22.67
2022-10-23T15:29:36.509Z,34.00
2022-10-23T15:32:40.552Z,34.00
2022-10-23T15:35:46.115Z,35.25
2022-10-23T15:38:50.307Z,27.67
2022-10-23T15:41:58.207Z,24.67
2022-10-23T15:45:02.585Z,33.50
2022-10-23T15:48:08.942Z,41.00
2022-10-23T15:51:15.663Z,32.50
2022-10-23T15:54:26.962Z,30.75
2022-10-23T15:57:32.996Z,32.00
2022-10-23T16:00:38.458Z,23.33
2022-10-23T16:03:43.919Z,32.25
2022-10-23T16:06:52.024Z,35.00
2022-10-23T16:09:56.557Z,41.25
2022-10-23T16:13:01.073Z,33.50
2022-10-23T16:16:05.038Z,32.75
2022-10-23T16:19:08.929Z,33.50
2022-10-23T16:22:15.112Z,45.75
2022-10-23T16:25:19.166Z,37.25
2022-10-23T16:28:23.048Z,65.50
2022-10-23T16:31:27.738Z,29.67
2022-10-23T16:34:31.351Z,37.75
2022-10-23T16:37:37.006Z,38.75
2022-10-23T16:40:52.030Z,43.00
2022-10-23T16:44:18.810Z,39.00
2022-10-23T16:47:43.066Z,41.00
2022-10-23T16:50:47.370Z,40.50
2022-10-23T16:53:52.952Z,43.50
2022-10-23T16:56:58.832Z,41.75
2022-10-23T17:00:02.536Z,55.00
2022-10-23T17:03:10.898Z,54.00
2022-10-23T17:06:18.176Z,43.50
2022-10-23T17:09:23.727Z,53.50
2022-10-23T17:12:30.410Z,55.25
2022-10-23T17:15:34.542Z,45.25
2022-10-23T17:18:42.877Z,55.00
2022-10-23T17:21:49.998Z,46.25
2022-10-23T17:24:55.020Z,45.25
2022-10-23T17:27:59.641Z,45.75
2022-10-23T17:31:04.392Z,42.75
2022-10-23T17:34:12.023Z,45.75
2022-10-23T17:37:17.429Z,48.00
2022-10-23T17:40:33.085Z,43.75
2022-10-23T17:43:37.439Z,42.25
2022-10-23T17:46:41.410Z,40.50
2022-10-23T17:49:46.162Z,39.75
2022-10-23T17:52:50.542Z,41.25
2022-10-23T17:55:55.940Z,44.00
2022-10-23T17:59:03.458Z,39.00
2022-10-23T18:02:08.574Z,44.00
2022-10-23T18:05:13.180Z,45.75
2022-10-23T18:08:17.803Z,40.25
2022-10-23T18:11:26.142Z,41.50
2022-10-23T18:14:31.709Z,40.00
2022-10-23T18:17:36.880Z,43.75
2022-10-23T18:20:42.010Z,40.25
2022-10-23T18:23:46.402Z,36.25
2022-10-23T18:26:52.764Z,44.75
2022-10-23T18:29:58.867Z,42.50
2022-10-23T18:33:03.258Z,35.00
2022-10-23T18:36:18.698Z,37.25
2022-10-23T18:39:29.375Z,36.00
2022-10-23T18:42:37.762Z,77.00
2022-10-23T18:45:43.927Z,55.50
2022-10-23T18:48:50.725Z,40.25
2022-10-23T18:51:56.382Z,39.75
2022-10-23T18:55:00.675Z,41.75
2022-10-23T18:58:05.930Z,66.50
2022-10-23T19:01:25.876Z,48.00
2022-10-23T19:04:35.555Z,35.25
2022-10-23T19:07:45.744Z,55.50
2022-10-23T19:10:54.055Z,38.00
2022-10-23T19:13:59.114Z,33.50
2022-10-23T19:17:07.837Z,37.00
2022-10-23T19:20:15.688Z,37.50
2022-10-23T19:23:19.928Z,35.25
2022-10-23T19:26:23.770Z,48.00
2022-10-23T19:29:31.632Z,38.50
2022-10-23T19:32:37.323Z,53.00
2022-10-23T19:35:41.157Z,57.25
2022-10-23T19:38:45.061Z,65.75
2022-10-23T19:41:51.720Z,39.50
2022-10-23T19:44:57.842Z,77.00
2022-10-23T19:48:01.637Z,49.00
2022-10-23T19:51:09.807Z,37.75
2022-10-23T19:54:13.793Z,33.00
2022-10-23T19:57:19.320Z,37.25
2022-10-23T20:00:29.099Z,37.00
2022-10-23T20:03:33.432Z,38.75
2022-10-23T20:06:38.784Z,35.00
2022-10-23T20:09:43.047Z,44.00
2022-10-23T20:12:56.402Z,37.25
2022-10-23T20:16:09.065Z,39.75
2022-10-23T20:19:14.934Z,36.50
2022-10-23T20:22:19.601Z,42.75
2022-10-23T20:25:23.221Z,38.75
2022-10-23T20:28:27.523Z,34.75
2022-10-23T20:31:36.694Z,36.25
2022-10-23T20:34:41.476Z,38.00
2022-10-23T20:37:45.923Z,51.00
2022-10-23T20:40:50.451Z,38.00
2022-10-23T20:43:56.804Z,38.00
2022-10-23T20:47:02.435Z,36.25
2022-10-23T20:50:06.787Z,33.75
2022-10-23T20:53:11.430Z,31.25
2022-10-23T20:56:18.561Z,39.50
2022-10-23T20:59:22.786Z,39.50
2022-10-23T21:02:30.193Z,30.75
2022-10-23T21:05:36.188Z,36.25
2022-10-23T21:08:41.210Z,34.75
2022-10-23T21:11:45.374Z,36.00
2022-10-23T21:14:49.105Z,37.75
2022-10-23T21:17:56.867Z,37.00
2022-10-23T21:21:03.310Z,35.25
2022-10-23T21:24:09.778Z,36.00
2022-10-23T21:27:15.228Z,42.00
2022-10-23T21:30:20.591Z,43.75
2022-10-23T21:33:26.145Z,48.25
2022-10-23T21:36:32.227Z,51.25
2022-10-23T21:39:37.640Z,54.00
2022-10-23T21:42:41.451Z,40.25
2022-10-23T21:45:45.025Z,37.00
2022-10-23T21:48:52.995Z,37.00
2022-10-23T21:51:57.820Z,37.75
2022-10-23T21:55:02.747Z,36.00
2022-10-23T21:58:08.072Z,35.50
2022-10-23T22:01:14.844Z,36.00
2022-10-23T22:04:22.238Z,27.75
2022-10-23T22:07:26.121Z,38.00
2022-10-23T22:10:29.654Z,35.25
2022-10-23T22:13:33.804Z,37.00
2022-10-23T22:16:44.610Z,34.50
2022-10-23T22:19:50.044Z,15.25
2022-10-23T22:22:53.610Z,34.50
2022-10-23T22:25:57.732Z,38.75
2022-10-23T22:29:03.285Z,54.50
2022-10-23T22:32:08.687Z,36.25
2022-10-23T22:35:14.045Z,34.25
2022-10-23T22:38:18.000Z,35.00
2022-10-23T22:41:22.183Z,37.25
2022-10-23T22:44:27.204Z,36.00
2022-10-23T22:47:31.683Z,39.00
2022-10-23T22:50:37.338Z,36.00
2022-10-23T22:53:41.081Z,41.00
2022-10-23T22:56:45.106Z,38.50
2022-10-23T22:59:48.686Z,35.50
2022-10-23T23:02:52.647Z,37.25
2022-10-23T23:05:58.491Z,39.00
2022-10-23T23:09:03.014Z,37.50
2022-10-23T23:12:07.135Z,37.50
2022-10-23T23:15:11.318Z,38.75
2022-10-23T23:18:15.201Z,37.75
2022-10-23T23:21:21.022Z,36.25
2022-10-23T23:24:24.887Z,38.00
2022-10-23T23:27:28.838Z,38.50
2022-10-23T23:30:35.212Z,40.00
2022-10-23T23:33:39.492Z,36.75
2022-10-23T23:36:46.916Z,32.00
2022-10-23T23:39:50.937Z,38.50
2022-10-23T23:42:54.531Z,36.25
2022-10-23T23:45:59.743Z,36.00
2022-10-23T23:49:03.446Z,37.50
2022-10-23T23:52:09.895Z,36.00
2022-10-23T23:55:14.507Z,35.75
2022-10-23T23:58:19.870Z,32.25
